sensor_id;sensor_type;location;lat;lon;timestamp;temperature;humidity
36990;DHT22;22898;52.102;5.776;2022-09-02T00:00:58;24.10;55.90
36990;DHT22;22898;52.102;5.776;2022-09-02T00:03:27;24.20;56.50
36990;DHT22;22898;52.102;5.776;2022-09-02T00:05:53;24.10;55.90
36990;DHT22;22898;52.102;5.776;2022-09-02T00:08:18;24.30;55.80
36990;DHT22;22898;52.102;5.776;2022-09-02T00:10:44;24.30;55.80
36990;DHT22;22898;52.102;5.776;2022-09-02T00:13:13;24.20;55.90
36990;DHT22;22898;52.102;5.776;2022-09-02T00:15:40;24.30;55.80
36990;DHT22;22898;52.102;5.776;2022-09-02T00:18:06;24.30;55.90
36990;DHT22;22898;52.102;5.776;2022-09-02T00:20:33;24.30;55.80
36990;DHT22;22898;52.102;5.776;2022-09-02T00:22:58;24.30;55.60
36990;DHT22;22898;52.102;5.776;2022-09-02T00:25:24;24.30;55.70
36990;DHT22;22898;52.102;5.776;2022-09-02T00:27:50;24.20;56.00
36990;DHT22;22898;52.102;5.776;2022-09-02T00:30:15;24.10;56.20
36990;DHT22;22898;52.102;5.776;2022-09-02T00:32:41;24.00;56.30
36990;DHT22;22898;52.102;5.776;2022-09-02T00:35:08;24.00;56.40
36990;DHT22;22898;52.102;5.776;2022-09-02T00:37:34;24.20;56.00
36990;DHT22;22898;52.102;5.776;2022-09-02T00:40:00;24.20;55.80
36990;DHT22;22898;52.102;5.776;2022-09-02T00:42:26;24.20;55.90
36990;DHT22;22898;52.102;5.776;2022-09-02T00:44:52;24.20;56.00
36990;DHT22;22898;52.102;5.776;2022-09-02T00:47:18;24.20;56.20
36990;DHT22;22898;52.102;5.776;2022-09-02T00:49:48;24.20;56.30
36990;DHT22;22898;52.102;5.776;2022-09-02T00:52:26;24.20;55.90
36990;DHT22;22898;52.102;5.776;2022-09-02T00:55:02;24.30;56.00
36990;DHT22;22898;52.102;5.776;2022-09-02T00:57:31;24.30;55.80
36990;DHT22;22898;52.102;5.776;2022-09-02T01:00:13;24.30;55.80
36990;DHT22;22898;52.102;5.776;2022-09-02T01:02:54;24.20;56.00
36990;DHT22;22898;52.102;5.776;2022-09-02T01:05:21;24.20;56.10
36990;DHT22;22898;52.102;5.776;2022-09-02T01:07:48;24.00;56.40
36990;DHT22;22898;52.102;5.776;2022-09-02T01:10:21;24.00;56.50
36990;DHT22;22898;52.102;5.776;2022-09-02T01:12:48;24.00;56.30
36990;DHT22;22898;52.102;5.776;2022-09-02T01:15:14;24.00;56.20
36990;DHT22;22898;52.102;5.776;2022-09-02T01:17:47;23.90;56.50
36990;DHT22;22898;52.102;5.776;2022-09-02T01:20:16;23.80;56.90
36990;DHT22;22898;52.102;5.776;2022-09-02T01:22:42;23.60;57.10
36990;DHT22;22898;52.102;5.776;2022-09-02T01:25:20;23.50;57.30
36990;DHT22;22898;52.102;5.776;2022-09-02T01:27:46;23.60;57.30
36990;DHT22;22898;52.102;5.776;2022-09-02T01:30:22;23.60;57.10
36990;DHT22;22898;52.102;5.776;2022-09-02T01:32:48;23.60;57.30
36990;DHT22;22898;52.102;5.776;2022-09-02T01:35:14;23.60;57.30
36990;DHT22;22898;52.102;5.776;2022-09-02T01:37:41;23.70;57.00
36990;DHT22;22898;52.102;5.776;2022-09-02T01:40:09;23.80;56.80
36990;DHT22;22898;52.102;5.776;2022-09-02T01:42:36;23.70;56.90
36990;DHT22;22898;52.102;5.776;2022-09-02T01:45:03;23.60;57.40
36990;DHT22;22898;52.102;5.776;2022-09-02T01:47:29;23.50;57.20
36990;DHT22;22898;52.102;5.776;2022-09-02T01:49:55;23.60;57.20
36990;DHT22;22898;52.102;5.776;2022-09-02T01:52:23;23.50;57.30
36990;DHT22;22898;52.102;5.776;2022-09-02T01:54:49;23.50;57.60
36990;DHT22;22898;52.102;5.776;2022-09-02T01:57:15;23.50;57.40
36990;DHT22;22898;52.102;5.776;2022-09-02T01:59:41;23.50;57.40
36990;DHT22;22898;52.102;5.776;2022-09-02T02:02:08;23.40;57.40
36990;DHT22;22898;52.102;5.776;2022-09-02T02:04:34;23.40;57.70
36990;DHT22;22898;52.102;5.776;2022-09-02T02:06:59;23.30;58.30
36990;DHT22;22898;52.102;5.776;2022-09-02T02:09:25;23.40;57.70
36990;DHT22;22898;52.102;5.776;2022-09-02T02:11:51;23.40;57.60
36990;DHT22;22898;52.102;5.776;2022-09-02T02:14:17;23.20;57.60
36990;DHT22;22898;52.102;5.776;2022-09-02T02:16:43;23.30;57.80
36990;DHT22;22898;52.102;5.776;2022-09-02T02:19:08;23.30;57.60
36990;DHT22;22898;52.102;5.776;2022-09-02T02:21:34;23.60;57.30
36990;DHT22;22898;52.102;5.776;2022-09-02T02:23:59;23.70;57.20
36990;DHT22;22898;52.102;5.776;2022-09-02T02:26:26;23.70;57.20
36990;DHT22;22898;52.102;5.776;2022-09-02T02:28:52;23.70;56.90
36990;DHT22;22898;52.102;5.776;2022-09-02T02:31:17;23.60;57.30
36990;DHT22;22898;52.102;5.776;2022-09-02T02:33:43;23.50;57.20
36990;DHT22;22898;52.102;5.776;2022-09-02T02:36:09;23.50;57.20
36990;DHT22;22898;52.102;5.776;2022-09-02T02:38:37;23.50;57.30
36990;DHT22;22898;52.102;5.776;2022-09-02T02:41:03;23.30;57.80
36990;DHT22;22898;52.102;5.776;2022-09-02T02:43:31;23.30;57.50
36990;DHT22;22898;52.102;5.776;2022-09-02T02:45:56;23.30;57.60
36990;DHT22;22898;52.102;5.776;2022-09-02T02:48:22;23.50;57.40
36990;DHT22;22898;52.102;5.776;2022-09-02T02:50:47;23.30;57.50
36990;DHT22;22898;52.102;5.776;2022-09-02T02:53:13;23.30;57.60
36990;DHT22;22898;52.102;5.776;2022-09-02T02:55:39;23.30;57.80
36990;DHT22;22898;52.102;5.776;2022-09-02T02:58:05;23.10;58.10
36990;DHT22;22898;52.102;5.776;2022-09-02T03:00:32;23.20;58.00
36990;DHT22;22898;52.102;5.776;2022-09-02T03:03:00;23.30;57.90
36990;DHT22;22898;52.102;5.776;2022-09-02T03:05:26;23.40;57.60
36990;DHT22;22898;52.102;5.776;2022-09-02T03:07:52;23.20;57.90
36990;DHT22;22898;52.102;5.776;2022-09-02T03:10:19;23.10;58.30
36990;DHT22;22898;52.102;5.776;2022-09-02T03:12:45;23.10;58.20
36990;DHT22;22898;52.102;5.776;2022-09-02T03:15:13;23.00;58.40
36990;DHT22;22898;52.102;5.776;2022-09-02T03:17:42;22.90;58.80
36990;DHT22;22898;52.102;5.776;2022-09-02T03:20:08;22.90;58.60
36990;DHT22;22898;52.102;5.776;2022-09-02T03:22:34;22.90;58.50
36990;DHT22;22898;52.102;5.776;2022-09-02T03:25:02;23.00;58.50
36990;DHT22;22898;52.102;5.776;2022-09-02T03:27:27;23.00;58.40
36990;DHT22;22898;52.102;5.776;2022-09-02T03:29:53;23.10;58.20
36990;DHT22;22898;52.102;5.776;2022-09-02T03:32:18;23.00;58.50
36990;DHT22;22898;52.102;5.776;2022-09-02T03:34:44;23.00;58.50
36990;DHT22;22898;52.102;5.776;2022-09-02T03:37:10;22.90;58.30
36990;DHT22;22898;52.102;5.776;2022-09-02T03:39:37;23.00;58.40
36990;DHT22;22898;52.102;5.776;2022-09-02T03:42:05;23.00;58.30
36990;DHT22;22898;52.102;5.776;2022-09-02T03:44:31;23.00;58.40
36990;DHT22;22898;52.102;5.776;2022-09-02T03:46:58;23.10;58.20
36990;DHT22;22898;52.102;5.776;2022-09-02T03:49:24;23.00;58.50
36990;DHT22;22898;52.102;5.776;2022-09-02T03:51:51;23.10;58.30
36990;DHT22;22898;52.102;5.776;2022-09-02T03:54:17;23.10;58.10
36990;DHT22;22898;52.102;5.776;2022-09-02T03:56:43;23.10;58.20
36990;DHT22;22898;52.102;5.776;2022-09-02T03:59:08;23.10;58.10
36990;DHT22;22898;52.102;5.776;2022-09-02T04:01:34;23.10;58.20
36990;DHT22;22898;52.102;5.776;2022-09-02T04:04:00;23.10;58.40
36990;DHT22;22898;52.102;5.776;2022-09-02T04:06:26;23.00;58.10
36990;DHT22;22898;52.102;5.776;2022-09-02T04:08:52;23.10;58.00
36990;DHT22;22898;52.102;5.776;2022-09-02T04:11:20;23.20;57.90
36990;DHT22;22898;52.102;5.776;2022-09-02T04:13:47;23.30;57.90
36990;DHT22;22898;52.102;5.776;2022-09-02T04:16:16;23.40;57.60
36990;DHT22;22898;52.102;5.776;2022-09-02T04:18:42;23.40;57.80
36990;DHT22;22898;52.102;5.776;2022-09-02T04:21:08;23.40;57.60
36990;DHT22;22898;52.102;5.776;2022-09-02T04:23:34;23.50;57.30
36990;DHT22;22898;52.102;5.776;2022-09-02T04:26:05;23.40;57.50
36990;DHT22;22898;52.102;5.776;2022-09-02T04:28:30;23.30;57.60
36990;DHT22;22898;52.102;5.776;2022-09-02T04:30:56;23.30;57.60
36990;DHT22;22898;52.102;5.776;2022-09-02T04:33:21;23.40;57.60
36990;DHT22;22898;52.102;5.776;2022-09-02T04:35:47;23.20;57.80
36990;DHT22;22898;52.102;5.776;2022-09-02T04:38:14;23.20;57.90
36990;DHT22;22898;52.102;5.776;2022-09-02T04:40:42;23.20;57.80
36990;DHT22;22898;52.102;5.776;2022-09-02T04:43:08;23.20;57.70
36990;DHT22;22898;52.102;5.776;2022-09-02T04:45:34;23.20;57.60
36990;DHT22;22898;52.102;5.776;2022-09-02T04:48:00;23.10;58.00
36990;DHT22;22898;52.102;5.776;2022-09-02T04:50:25;23.10;58.00
36990;DHT22;22898;52.102;5.776;2022-09-02T04:52:51;23.00;57.80
36990;DHT22;22898;52.102;5.776;2022-09-02T04:55:16;22.70;58.50
36990;DHT22;22898;52.102;5.776;2022-09-02T04:57:42;22.70;58.40
36990;DHT22;22898;52.102;5.776;2022-09-02T05:00:08;22.70;58.20
36990;DHT22;22898;52.102;5.776;2022-09-02T05:02:34;22.80;58.30
36990;DHT22;22898;52.102;5.776;2022-09-02T05:04:59;22.80;58.40
36990;DHT22;22898;52.102;5.776;2022-09-02T05:07:25;22.90;58.20
36990;DHT22;22898;52.102;5.776;2022-09-02T05:09:56;23.00;58.10
36990;DHT22;22898;52.102;5.776;2022-09-02T05:12:22;23.10;58.50
36990;DHT22;22898;52.102;5.776;2022-09-02T05:14:50;23.00;58.10
36990;DHT22;22898;52.102;5.776;2022-09-02T05:17:15;23.00;58.10
36990;DHT22;22898;52.102;5.776;2022-09-02T05:19:41;22.90;58.30
36990;DHT22;22898;52.102;5.776;2022-09-02T05:22:07;23.00;58.20
36990;DHT22;22898;52.102;5.776;2022-09-02T05:24:32;23.10;58.00
36990;DHT22;22898;52.102;5.776;2022-09-02T05:26:58;23.20;57.90
36990;DHT22;22898;52.102;5.776;2022-09-02T05:29:23;23.40;57.60
36990;DHT22;22898;52.102;5.776;2022-09-02T05:31:50;23.40;57.60
36990;DHT22;22898;52.102;5.776;2022-09-02T05:34:16;23.30;57.90
36990;DHT22;22898;52.102;5.776;2022-09-02T05:36:43;23.10;58.00
36990;DHT22;22898;52.102;5.776;2022-09-02T05:39:09;23.30;57.60
36990;DHT22;22898;52.102;5.776;2022-09-02T05:41:34;23.30;57.60
36990;DHT22;22898;52.102;5.776;2022-09-02T05:44:01;23.20;57.50
36990;DHT22;22898;52.102;5.776;2022-09-02T05:46:28;23.00;58.40
36990;DHT22;22898;52.102;5.776;2022-09-02T05:48:54;22.90;58.40
36990;DHT22;22898;52.102;5.776;2022-09-02T05:51:55;23.00;58.50
36990;DHT22;22898;52.102;5.776;2022-09-02T05:54:33;23.10;59.10
36990;DHT22;22898;52.102;5.776;2022-09-02T05:57:02;23.00;58.20
36990;DHT22;22898;52.102;5.776;2022-09-02T05:59:29;23.00;58.40
36990;DHT22;22898;52.102;5.776;2022-09-02T06:01:56;23.00;58.50
36990;DHT22;22898;52.102;5.776;2022-09-02T06:04:22;23.10;58.20
36990;DHT22;22898;52.102;5.776;2022-09-02T06:06:49;23.10;58.40
36990;DHT22;22898;52.102;5.776;2022-09-02T06:09:17;23.00;58.50
36990;DHT22;22898;52.102;5.776;2022-09-02T06:11:44;23.10;58.50
36990;DHT22;22898;52.102;5.776;2022-09-02T06:14:14;23.10;58.40
36990;DHT22;22898;52.102;5.776;2022-09-02T06:16:42;23.20;58.30
36990;DHT22;22898;52.102;5.776;2022-09-02T06:19:08;23.10;58.60
36990;DHT22;22898;52.102;5.776;2022-09-02T06:21:35;23.10;58.70
36990;DHT22;22898;52.102;5.776;2022-09-02T06:24:01;23.00;58.60
36990;DHT22;22898;52.102;5.776;2022-09-02T06:26:28;23.00;58.80
36990;DHT22;22898;52.102;5.776;2022-09-02T06:28:54;23.30;58.60
36990;DHT22;22898;52.102;5.776;2022-09-02T06:31:21;23.20;58.20
36990;DHT22;22898;52.102;5.776;2022-09-02T06:33:51;23.30;58.10
36990;DHT22;22898;52.102;5.776;2022-09-02T06:36:18;23.40;58.20
36990;DHT22;22898;52.102;5.776;2022-09-02T06:38:45;23.50;58.30
36990;DHT22;22898;52.102;5.776;2022-09-02T06:41:14;23.70;58.10
36990;DHT22;22898;52.102;5.776;2022-09-02T06:43:40;23.70;57.40
36990;DHT22;22898;52.102;5.776;2022-09-02T06:46:06;23.70;57.70
36990;DHT22;22898;52.102;5.776;2022-09-02T06:48:32;23.60;57.90
36990;DHT22;22898;52.102;5.776;2022-09-02T06:50:57;23.70;57.60
36990;DHT22;22898;52.102;5.776;2022-09-02T06:53:23;23.80;57.80
36990;DHT22;22898;52.102;5.776;2022-09-02T06:55:49;23.90;57.70
36990;DHT22;22898;52.102;5.776;2022-09-02T06:58:15;23.90;57.60
36990;DHT22;22898;52.102;5.776;2022-09-02T07:00:41;24.10;57.40
36990;DHT22;22898;52.102;5.776;2022-09-02T07:03:08;24.30;57.00
36990;DHT22;22898;52.102;5.776;2022-09-02T07:06:04;24.50;56.10
36990;DHT22;22898;52.102;5.776;2022-09-02T07:08:41;24.60;56.40
36990;DHT22;22898;52.102;5.776;2022-09-02T07:11:16;24.70;56.20
36990;DHT22;22898;52.102;5.776;2022-09-02T07:13:42;24.80;56.30
36990;DHT22;22898;52.102;5.776;2022-09-02T07:16:07;25.00;56.00
36990;DHT22;22898;52.102;5.776;2022-09-02T07:18:34;25.20;55.50
36990;DHT22;22898;52.102;5.776;2022-09-02T07:21:00;25.00;55.30
36990;DHT22;22898;52.102;5.776;2022-09-02T07:23:26;24.70;55.90
36990;DHT22;22898;52.102;5.776;2022-09-02T07:25:52;24.50;56.60
36990;DHT22;22898;52.102;5.776;2022-09-02T07:28:19;24.50;56.60
36990;DHT22;22898;52.102;5.776;2022-09-02T07:30:45;24.40;56.70
36990;DHT22;22898;52.102;5.776;2022-09-02T07:33:11;24.30;57.30
36990;DHT22;22898;52.102;5.776;2022-09-02T07:35:39;24.50;56.90
36990;DHT22;22898;52.102;5.776;2022-09-02T07:38:05;24.70;56.80
36990;DHT22;22898;52.102;5.776;2022-09-02T07:40:32;24.50;57.00
36990;DHT22;22898;52.102;5.776;2022-09-02T07:43:04;24.50;57.10
36990;DHT22;22898;52.102;5.776;2022-09-02T07:45:30;24.70;57.20
36990;DHT22;22898;52.102;5.776;2022-09-02T07:47:56;24.90;56.50
36990;DHT22;22898;52.102;5.776;2022-09-02T07:50:22;24.90;56.80
36990;DHT22;22898;52.102;5.776;2022-09-02T07:52:52;24.90;56.60
36990;DHT22;22898;52.102;5.776;2022-09-02T07:55:18;25.20;56.60
36990;DHT22;22898;52.102;5.776;2022-09-02T07:57:44;25.60;56.20
36990;DHT22;22898;52.102;5.776;2022-09-02T08:00:10;25.80;55.80
36990;DHT22;22898;52.102;5.776;2022-09-02T08:02:37;25.90;55.70
36990;DHT22;22898;52.102;5.776;2022-09-02T08:05:03;26.00;55.60
36990;DHT22;22898;52.102;5.776;2022-09-02T08:07:30;26.00;55.80
36990;DHT22;22898;52.102;5.776;2022-09-02T08:09:55;26.00;56.00
36990;DHT22;22898;52.102;5.776;2022-09-02T08:12:21;26.00;56.30
36990;DHT22;22898;52.102;5.776;2022-09-02T08:14:46;26.10;56.00
36990;DHT22;22898;52.102;5.776;2022-09-02T08:17:12;26.20;56.10
36990;DHT22;22898;52.102;5.776;2022-09-02T08:19:37;26.30;55.70
36990;DHT22;22898;52.102;5.776;2022-09-02T08:22:04;26.50;55.30
36990;DHT22;22898;52.102;5.776;2022-09-02T08:24:31;26.40;55.20
36990;DHT22;22898;52.102;5.776;2022-09-02T08:26:57;26.60;55.00
36990;DHT22;22898;52.102;5.776;2022-09-02T08:29:24;26.70;54.80
36990;DHT22;22898;52.102;5.776;2022-09-02T08:31:50;26.80;55.40
36990;DHT22;22898;52.102;5.776;2022-09-02T08:34:15;26.90;54.70
36990;DHT22;22898;52.102;5.776;2022-09-02T08:36:41;27.10;54.80
36990;DHT22;22898;52.102;5.776;2022-09-02T08:39:08;27.30;54.30
36990;DHT22;22898;52.102;5.776;2022-09-02T08:44:16;27.60;53.80
36990;DHT22;22898;52.102;5.776;2022-09-02T08:46:43;27.70;53.90
36990;DHT22;22898;52.102;5.776;2022-09-02T08:52:15;27.90;53.40
36990;DHT22;22898;52.102;5.776;2022-09-02T08:54:47;28.00;53.90
36990;DHT22;22898;52.102;5.776;2022-09-02T08:57:14;28.20;53.30
36990;DHT22;22898;52.102;5.776;2022-09-02T08:59:40;28.20;53.10
36990;DHT22;22898;52.102;5.776;2022-09-02T09:02:30;28.20;53.30
36990;DHT22;22898;52.102;5.776;2022-09-02T09:05:25;28.20;53.50
36990;DHT22;22898;52.102;5.776;2022-09-02T09:11:04;28.20;53.60
36990;DHT22;22898;52.102;5.776;2022-09-02T09:21:56;28.20;53.40
36990;DHT22;22898;52.102;5.776;2022-09-02T09:24:35;28.00;54.00
36990;DHT22;22898;52.102;5.776;2022-09-02T09:27:07;28.30;53.60
36990;DHT22;22898;52.102;5.776;2022-09-02T09:29:33;28.50;53.50
36990;DHT22;22898;52.102;5.776;2022-09-02T09:32:01;28.90;53.40
36990;DHT22;22898;52.102;5.776;2022-09-02T09:39:58;28.60;52.80
36990;DHT22;22898;52.102;5.776;2022-09-02T09:42:35;28.70;53.10
36990;DHT22;22898;52.102;5.776;2022-09-02T09:45:19;28.70;53.70
36990;DHT22;22898;52.102;5.776;2022-09-02T09:48:21;29.00;53.20
36990;DHT22;22898;52.102;5.776;2022-09-02T09:53:26;29.50;52.60
36990;DHT22;22898;52.102;5.776;2022-09-02T09:55:57;29.50;52.70
36990;DHT22;22898;52.102;5.776;2022-09-02T09:58:34;29.70;52.60
36990;DHT22;22898;52.102;5.776;2022-09-02T10:01:18;29.90;51.70
36990;DHT22;22898;52.102;5.776;2022-09-02T10:03:52;29.90;52.10
36990;DHT22;22898;52.102;5.776;2022-09-02T10:06:24;29.80;52.50
36990;DHT22;22898;52.102;5.776;2022-09-02T10:09:04;29.90;52.20
36990;DHT22;22898;52.102;5.776;2022-09-02T10:11:35;30.00;52.30
36990;DHT22;22898;52.102;5.776;2022-09-02T10:14:06;30.00;51.70
36990;DHT22;22898;52.102;5.776;2022-09-02T10:19:51;29.80;52.60
36990;DHT22;22898;52.102;5.776;2022-09-02T10:25:26;29.70;52.10
36990;DHT22;22898;52.102;5.776;2022-09-02T10:34:09;30.10;52.30
36990;DHT22;22898;52.102;5.776;2022-09-02T10:40:07;30.30;52.10
36990;DHT22;22898;52.102;5.776;2022-09-02T10:42:59;30.20;52.00
36990;DHT22;22898;52.102;5.776;2022-09-02T10:45:37;30.40;51.70
36990;DHT22;22898;52.102;5.776;2022-09-02T10:53:53;30.20;51.90
36990;DHT22;22898;52.102;5.776;2022-09-02T10:56:23;30.40;51.70
36990;DHT22;22898;52.102;5.776;2022-09-02T10:58:53;30.60;51.50
36990;DHT22;22898;52.102;5.776;2022-09-02T11:04:34;30.70;51.40
36990;DHT22;22898;52.102;5.776;2022-09-02T11:07:03;30.60;51.20
36990;DHT22;22898;52.102;5.776;2022-09-02T11:09:41;30.90;51.00
36990;DHT22;22898;52.102;5.776;2022-09-02T11:12:15;30.90;51.20
36990;DHT22;22898;52.102;5.776;2022-09-02T11:20:25;30.60;51.50
36990;DHT22;22898;52.102;5.776;2022-09-02T11:36:41;31.70;49.90
36990;DHT22;22898;52.102;5.776;2022-09-02T11:39:09;31.80;49.60
36990;DHT22;22898;52.102;5.776;2022-09-02T11:41:48;31.80;50.00
36990;DHT22;22898;52.102;5.776;2022-09-02T11:47:41;31.70;47.90
36990;DHT22;22898;52.102;5.776;2022-09-02T11:55:39;31.20;48.40
36990;DHT22;22898;52.102;5.776;2022-09-02T11:58:05;31.40;49.20
36990;DHT22;22898;52.102;5.776;2022-09-02T12:00:34;31.40;48.80
36990;DHT22;22898;52.102;5.776;2022-09-02T12:08:04;31.40;48.90
36990;DHT22;22898;52.102;5.776;2022-09-02T12:13:10;31.80;46.00
36990;DHT22;22898;52.102;5.776;2022-09-02T12:15:37;32.00;46.10
36990;DHT22;22898;52.102;5.776;2022-09-02T12:18:27;31.80;47.40
36990;DHT22;22898;52.102;5.776;2022-09-02T12:31:44;31.70;46.30
36990;DHT22;22898;52.102;5.776;2022-09-02T12:36:53;32.00;45.00
36990;DHT22;22898;52.102;5.776;2022-09-02T12:45:04;32.10;43.10
36990;DHT22;22898;52.102;5.776;2022-09-02T12:47:57;32.20;43.50
36990;DHT22;22898;52.102;5.776;2022-09-02T12:53:33;32.60;43.30
36990;DHT22;22898;52.102;5.776;2022-09-02T12:56:15;32.90;43.10
36990;DHT22;22898;52.102;5.776;2022-09-02T12:58:53;33.10;43.60
36990;DHT22;22898;52.102;5.776;2022-09-02T13:09:48;33.40;41.70
36990;DHT22;22898;52.102;5.776;2022-09-02T13:20:38;32.40;42.60
36990;DHT22;22898;52.102;5.776;2022-09-02T13:32:09;31.70;42.80
36990;DHT22;22898;52.102;5.776;2022-09-02T13:34:43;31.60;43.40
36990;DHT22;22898;52.102;5.776;2022-09-02T13:39:54;31.70;43.70
36990;DHT22;22898;52.102;5.776;2022-09-02T13:42:26;31.50;43.60
36990;DHT22;22898;52.102;5.776;2022-09-02T13:45:19;31.40;44.00
36990;DHT22;22898;52.102;5.776;2022-09-02T13:47:47;31.40;45.30
36990;DHT22;22898;52.102;5.776;2022-09-02T13:50:17;31.50;45.10
36990;DHT22;22898;52.102;5.776;2022-09-02T13:52:46;31.80;44.10
36990;DHT22;22898;52.102;5.776;2022-09-02T13:55:14;31.90;44.50
36990;DHT22;22898;52.102;5.776;2022-09-02T13:57:48;31.80;44.10
36990;DHT22;22898;52.102;5.776;2022-09-02T14:00:26;31.80;44.30
36990;DHT22;22898;52.102;5.776;2022-09-02T14:02:58;31.70;44.30
36990;DHT22;22898;52.102;5.776;2022-09-02T14:05:24;31.60;44.70
36990;DHT22;22898;52.102;5.776;2022-09-02T14:07:56;31.40;44.40
36990;DHT22;22898;52.102;5.776;2022-09-02T14:10:25;31.10;45.20
36990;DHT22;22898;52.102;5.776;2022-09-02T14:12:52;30.80;45.60
36990;DHT22;22898;52.102;5.776;2022-09-02T14:15:24;30.80;46.20
36990;DHT22;22898;52.102;5.776;2022-09-02T14:20:36;31.10;45.20
36990;DHT22;22898;52.102;5.776;2022-09-02T14:23:02;31.40;45.40
36990;DHT22;22898;52.102;5.776;2022-09-02T14:25:36;31.60;45.70
36990;DHT22;22898;52.102;5.776;2022-09-02T14:28:09;31.80;45.80
36990;DHT22;22898;52.102;5.776;2022-09-02T14:30:39;32.00;45.70
36990;DHT22;22898;52.102;5.776;2022-09-02T14:33:39;32.10;45.00
36990;DHT22;22898;52.102;5.776;2022-09-02T14:41:24;32.30;44.50
36990;DHT22;22898;52.102;5.776;2022-09-02T14:43:53;32.20;44.60
36990;DHT22;22898;52.102;5.776;2022-09-02T14:46:43;32.00;44.70
36990;DHT22;22898;52.102;5.776;2022-09-02T14:49:18;32.00;45.20
36990;DHT22;22898;52.102;5.776;2022-09-02T14:51:50;32.00;45.30
36990;DHT22;22898;52.102;5.776;2022-09-02T14:54:44;32.00;44.90
36990;DHT22;22898;52.102;5.776;2022-09-02T14:57:31;32.10;44.90
36990;DHT22;22898;52.102;5.776;2022-09-02T14:59:59;32.10;45.50
36990;DHT22;22898;52.102;5.776;2022-09-02T15:04:51;32.20;44.70
36990;DHT22;22898;52.102;5.776;2022-09-02T15:07:17;32.20;45.10
36990;DHT22;22898;52.102;5.776;2022-09-02T15:09:43;32.20;45.40
36990;DHT22;22898;52.102;5.776;2022-09-02T15:12:11;32.40;45.20
36990;DHT22;22898;52.102;5.776;2022-09-02T15:14:37;32.30;44.10
36990;DHT22;22898;52.102;5.776;2022-09-02T15:17:07;32.10;44.70
36990;DHT22;22898;52.102;5.776;2022-09-02T15:19:34;32.20;44.50
36990;DHT22;22898;52.102;5.776;2022-09-02T15:21:59;32.20;44.20
36990;DHT22;22898;52.102;5.776;2022-09-02T15:24:25;32.20;44.00
36990;DHT22;22898;52.102;5.776;2022-09-02T15:26:51;32.20;45.00
36990;DHT22;22898;52.102;5.776;2022-09-02T15:29:16;32.50;43.60
36990;DHT22;22898;52.102;5.776;2022-09-02T15:31:43;32.60;43.70
36990;DHT22;22898;52.102;5.776;2022-09-02T15:34:09;32.50;42.80
36990;DHT22;22898;52.102;5.776;2022-09-02T15:36:35;32.50;43.60
36990;DHT22;22898;52.102;5.776;2022-09-02T15:39:01;32.50;44.50
36990;DHT22;22898;52.102;5.776;2022-09-02T15:41:26;32.70;43.90
36990;DHT22;22898;52.102;5.776;2022-09-02T15:43:53;32.50;44.40
36990;DHT22;22898;52.102;5.776;2022-09-02T15:46:22;32.50;43.60
36990;DHT22;22898;52.102;5.776;2022-09-02T15:48:48;32.40;43.40
36990;DHT22;22898;52.102;5.776;2022-09-02T15:51:15;32.40;43.60
36990;DHT22;22898;52.102;5.776;2022-09-02T15:53:41;32.40;43.30
36990;DHT22;22898;52.102;5.776;2022-09-02T15:56:17;32.40;43.50
36990;DHT22;22898;52.102;5.776;2022-09-02T15:58:44;32.40;43.20
36990;DHT22;22898;52.102;5.776;2022-09-02T16:01:10;32.10;43.20
36990;DHT22;22898;52.102;5.776;2022-09-02T16:03:35;32.00;43.60
36990;DHT22;22898;52.102;5.776;2022-09-02T16:06:03;32.00;43.40
36990;DHT22;22898;52.102;5.776;2022-09-02T16:08:28;31.90;43.60
36990;DHT22;22898;52.102;5.776;2022-09-02T16:10:54;31.60;44.10
36990;DHT22;22898;52.102;5.776;2022-09-02T16:13:19;31.50;44.10
36990;DHT22;22898;52.102;5.776;2022-09-02T16:15:46;31.50;44.30
36990;DHT22;22898;52.102;5.776;2022-09-02T16:18:12;31.60;44.30
36990;DHT22;22898;52.102;5.776;2022-09-02T16:20:37;31.60;44.40
36990;DHT22;22898;52.102;5.776;2022-09-02T16:23:03;31.60;44.30
36990;DHT22;22898;52.102;5.776;2022-09-02T16:25:28;31.50;43.70
36990;DHT22;22898;52.102;5.776;2022-09-02T16:27:54;31.60;44.10
36990;DHT22;22898;52.102;5.776;2022-09-02T16:30:21;31.50;44.40
36990;DHT22;22898;52.102;5.776;2022-09-02T16:32:47;31.40;44.10
36990;DHT22;22898;52.102;5.776;2022-09-02T16:35:15;31.30;44.60
36990;DHT22;22898;52.102;5.776;2022-09-02T16:37:40;31.30;44.30
36990;DHT22;22898;52.102;5.776;2022-09-02T16:40:06;31.20;44.00
36990;DHT22;22898;52.102;5.776;2022-09-02T16:42:33;31.10;44.60
36990;DHT22;22898;52.102;5.776;2022-09-02T16:44:58;31.20;44.40
36990;DHT22;22898;52.102;5.776;2022-09-02T16:47:24;31.30;44.20
36990;DHT22;22898;52.102;5.776;2022-09-02T16:49:51;31.30;43.90
36990;DHT22;22898;52.102;5.776;2022-09-02T16:52:16;31.30;43.90
36990;DHT22;22898;52.102;5.776;2022-09-02T16:54:42;31.30;44.20
36990;DHT22;22898;52.102;5.776;2022-09-02T16:57:08;31.20;44.50
36990;DHT22;22898;52.102;5.776;2022-09-02T16:59:33;31.20;44.60
36990;DHT22;22898;52.102;5.776;2022-09-02T17:01:59;31.00;44.70
36990;DHT22;22898;52.102;5.776;2022-09-02T17:04:25;31.00;45.50
36990;DHT22;22898;52.102;5.776;2022-09-02T17:06:50;31.00;44.50
36990;DHT22;22898;52.102;5.776;2022-09-02T17:09:16;31.10;44.50
36990;DHT22;22898;52.102;5.776;2022-09-02T17:11:41;30.90;44.90
36990;DHT22;22898;52.102;5.776;2022-09-02T17:14:11;30.90;45.00
36990;DHT22;22898;52.102;5.776;2022-09-02T17:16:40;30.90;45.00
36990;DHT22;22898;52.102;5.776;2022-09-02T17:19:06;30.80;45.00
36990;DHT22;22898;52.102;5.776;2022-09-02T17:21:43;30.80;45.00
36990;DHT22;22898;52.102;5.776;2022-09-02T17:24:10;30.80;44.60
36990;DHT22;22898;52.102;5.776;2022-09-02T17:26:38;30.80;44.70
36990;DHT22;22898;52.102;5.776;2022-09-02T17:29:13;30.70;44.70
36990;DHT22;22898;52.102;5.776;2022-09-02T17:31:43;30.70;45.00
36990;DHT22;22898;52.102;5.776;2022-09-02T17:34:09;30.70;44.90
36990;DHT22;22898;52.102;5.776;2022-09-02T17:36:37;30.70;45.00
36990;DHT22;22898;52.102;5.776;2022-09-02T17:39:07;30.80;45.40
36990;DHT22;22898;52.102;5.776;2022-09-02T17:41:33;30.80;44.80
36990;DHT22;22898;52.102;5.776;2022-09-02T17:44:17;30.90;44.80
36990;DHT22;22898;52.102;5.776;2022-09-02T17:46:44;30.80;45.00
36990;DHT22;22898;52.102;5.776;2022-09-02T17:49:10;30.60;45.00
36990;DHT22;22898;52.102;5.776;2022-09-02T17:51:37;30.60;45.40
36990;DHT22;22898;52.102;5.776;2022-09-02T17:54:05;30.60;45.40
36990;DHT22;22898;52.102;5.776;2022-09-02T17:59:20;30.60;45.60
36990;DHT22;22898;52.102;5.776;2022-09-02T18:10:35;30.80;45.40
36990;DHT22;22898;52.102;5.776;2022-09-02T18:13:03;30.80;45.40
36990;DHT22;22898;52.102;5.776;2022-09-02T18:15:29;30.70;45.90
36990;DHT22;22898;52.102;5.776;2022-09-02T18:18:00;30.60;46.00